sensor_id;sensor_type;location;lat;lon;timestamp;P1;durP1;ratioP1;P2;durP2;ratioP2
19111;SDS011;9688;51.906;8.376;2022-10-04T00:02:42;10.20;;;5.50;;
19111;SDS011;9688;51.906;8.376;2022-10-04T00:05:50;11.43;;;5.60;;
19111;SDS011;9688;51.906;8.376;2022-10-04T00:08:58;9.93;;;5.20;;
19111;SDS011;9688;51.906;8.376;2022-10-04T00:12:13;6.20;;;5.10;;
19111;SDS011;9688;51.906;8.376;2022-10-04T00:15:24;12.97;;;5.40;;
19111;SDS011;9688;51.906;8.376;2022-10-04T00:18:36;10.53;;;6.17;;
19111;SDS011;9688;51.906;8.376;2022-10-04T00:25:18;11.30;;;5.57;;
19111;SDS011;9688;51.906;8.376;2022-10-04T00:28:30;16.47;;;6.20;;
19111;SDS011;9688;51.906;8.376;2022-10-04T00:35:48;8.37;;;5.50;;
19111;SDS011;9688;51.906;8.376;2022-10-04T00:39:03;13.03;;;5.73;;
19111;SDS011;9688;51.906;8.376;2022-10-04T00:42:45;11.13;;;5.30;;
19111;SDS011;9688;51.906;8.376;2022-10-04T00:45:55;11.30;;;6.10;;
19111;SDS011;9688;51.906;8.376;2022-10-04T00:49:05;11.90;;;6.13;;
19111;SDS011;9688;51.906;8.376;2022-10-04T00:52:12;14.57;;;5.93;;
19111;SDS011;9688;51.906;8.376;2022-10-04T00:55:23;9.50;;;5.43;;
19111;SDS011;9688;51.906;8.376;2022-10-04T00:58:31;9.17;;;5.13;;
19111;SDS011;9688;51.906;8.376;2022-10-04T01:01:41;12.27;;;6.20;;
19111;SDS011;9688;51.906;8.376;2022-10-04T01:04:49;11.77;;;6.20;;
19111;SDS011;9688;51.906;8.376;2022-10-04T01:07:57;10.50;;;6.43;;
19111;SDS011;9688;51.906;8.376;2022-10-04T01:11:10;8.67;;;6.47;;
19111;SDS011;9688;51.906;8.376;2022-10-04T01:14:21;10.00;;;6.47;;
19111;SDS011;9688;51.906;8.376;2022-10-04T01:17:36;8.13;;;6.47;;
19111;SDS011;9688;51.906;8.376;2022-10-04T01:20:48;9.73;;;6.40;;
19111;SDS011;9688;51.906;8.376;2022-10-04T01:26:54;7.80;;;5.80;;
19111;SDS011;9688;51.906;8.376;2022-10-04T01:29:59;11.10;;;6.13;;
19111;SDS011;9688;51.906;8.376;2022-10-04T01:33:12;14.77;;;7.00;;
19111;SDS011;9688;51.906;8.376;2022-10-04T01:36:16;10.60;;;6.70;;
19111;SDS011;9688;51.906;8.376;2022-10-04T01:39:21;7.97;;;5.60;;
19111;SDS011;9688;51.906;8.376;2022-10-04T01:42:30;9.40;;;6.03;;
19111;SDS011;9688;51.906;8.376;2022-10-04T01:45:39;12.10;;;6.73;;
19111;SDS011;9688;51.906;8.376;2022-10-04T01:48:50;13.03;;;6.60;;
19111;SDS011;9688;51.906;8.376;2022-10-04T01:51:56;14.80;;;6.90;;
19111;SDS011;9688;51.906;8.376;2022-10-04T01:55:07;11.77;;;6.23;;
19111;SDS011;9688;51.906;8.376;2022-10-04T01:58:20;7.33;;;5.43;;
19111;SDS011;9688;51.906;8.376;2022-10-04T02:01:28;12.07;;;6.13;;
19111;SDS011;9688;51.906;8.376;2022-10-04T02:04:38;10.53;;;5.90;;
19111;SDS011;9688;51.906;8.376;2022-10-04T02:07:44;8.10;;;5.53;;
19111;SDS011;9688;51.906;8.376;2022-10-04T02:10:51;10.10;;;5.70;;
19111;SDS011;9688;51.906;8.376;2022-10-04T02:14:00;9.67;;;6.43;;
19111;SDS011;9688;51.906;8.376;2022-10-04T02:17:05;9.87;;;6.20;;
19111;SDS011;9688;51.906;8.376;2022-10-04T02:20:14;9.77;;;6.13;;
19111;SDS011;9688;51.906;8.376;2022-10-04T02:23:20;9.27;;;6.17;;
19111;SDS011;9688;51.906;8.376;2022-10-04T02:26:26;9.87;;;5.43;;
19111;SDS011;9688;51.906;8.376;2022-10-04T02:29:32;6.57;;;5.40;;
19111;SDS011;9688;51.906;8.376;2022-10-04T02:32:37;13.30;;;4.90;;
19111;SDS011;9688;51.906;8.376;2022-10-04T02:36:02;11.27;;;5.40;;
19111;SDS011;9688;51.906;8.376;2022-10-04T02:39:12;9.13;;;5.70;;
19111;SDS011;9688;51.906;8.376;2022-10-04T02:42:19;10.37;;;5.47;;
19111;SDS011;9688;51.906;8.376;2022-10-04T02:45:35;7.53;;;4.67;;
19111;SDS011;9688;51.906;8.376;2022-10-04T02:48:45;13.77;;;6.00;;
19111;SDS011;9688;51.906;8.376;2022-10-04T02:51:53;8.43;;;5.00;;
19111;SDS011;9688;51.906;8.376;2022-10-04T02:55:04;7.87;;;5.03;;
19111;SDS011;9688;51.906;8.376;2022-10-04T02:58:16;8.30;;;4.97;;
19111;SDS011;9688;51.906;8.376;2022-10-04T03:01:26;11.93;;;5.33;;
19111;SDS011;9688;51.906;8.376;2022-10-04T03:04:39;11.47;;;5.20;;
19111;SDS011;9688;51.906;8.376;2022-10-04T03:07:43;7.33;;;5.10;;
19111;SDS011;9688;51.906;8.376;2022-10-04T03:10:48;7.83;;;4.90;;
19111;SDS011;9688;51.906;8.376;2022-10-04T03:13:54;9.43;;;5.20;;
19111;SDS011;9688;51.906;8.376;2022-10-04T03:17:12;7.57;;;5.07;;
19111;SDS011;9688;51.906;8.376;2022-10-04T03:20:18;7.83;;;5.00;;
19111;SDS011;9688;51.906;8.376;2022-10-04T03:23:24;11.87;;;4.60;;
19111;SDS011;9688;51.906;8.376;2022-10-04T03:26:29;12.23;;;5.07;;
19111;SDS011;9688;51.906;8.376;2022-10-04T03:29:39;7.13;;;5.50;;
19111;SDS011;9688;51.906;8.376;2022-10-04T03:32:51;11.67;;;5.63;;
19111;SDS011;9688;51.906;8.376;2022-10-04T03:35:56;9.53;;;5.70;;
19111;SDS011;9688;51.906;8.376;2022-10-04T03:39:02;9.27;;;5.43;;
19111;SDS011;9688;51.906;8.376;2022-10-04T03:42:13;12.37;;;5.90;;
19111;SDS011;9688;51.906;8.376;2022-10-04T03:45:20;8.47;;;5.53;;
19111;SDS011;9688;51.906;8.376;2022-10-04T03:48:30;8.97;;;5.07;;
19111;SDS011;9688;51.906;8.376;2022-10-04T03:51:37;10.93;;;5.60;;
19111;SDS011;9688;51.906;8.376;2022-10-04T03:54:49;11.80;;;5.50;;
19111;SDS011;9688;51.906;8.376;2022-10-04T03:57:57;8.37;;;4.97;;
19111;SDS011;9688;51.906;8.376;2022-10-04T04:01:04;9.27;;;5.30;;
19111;SDS011;9688;51.906;8.376;2022-10-04T04:04:19;7.70;;;5.67;;
19111;SDS011;9688;51.906;8.376;2022-10-04T04:07:28;8.10;;;5.40;;
19111;SDS011;9688;51.906;8.376;2022-10-04T04:10:41;13.13;;;6.13;;
19111;SDS011;9688;51.906;8.376;2022-10-04T04:13:51;10.43;;;6.17;;
19111;SDS011;9688;51.906;8.376;2022-10-04T04:17:15;10.90;;;5.27;;
19111;SDS011;9688;51.906;8.376;2022-10-04T04:20:25;8.37;;;5.43;;
19111;SDS011;9688;51.906;8.376;2022-10-04T04:23:34;9.13;;;5.30;;
19111;SDS011;9688;51.906;8.376;2022-10-04T04:26:41;8.33;;;5.27;;
19111;SDS011;9688;51.906;8.376;2022-10-04T04:29:49;12.80;;;5.20;;
19111;SDS011;9688;51.906;8.376;2022-10-04T04:32:55;10.47;;;5.43;;
19111;SDS011;9688;51.906;8.376;2022-10-04T04:36:06;15.40;;;6.43;;
19111;SDS011;9688;51.906;8.376;2022-10-04T04:39:16;9.63;;;5.87;;
19111;SDS011;9688;51.906;8.376;2022-10-04T04:42:39;10.30;;;5.17;;
19111;SDS011;9688;51.906;8.376;2022-10-04T04:45:45;11.97;;;5.83;;
19111;SDS011;9688;51.906;8.376;2022-10-04T04:48:53;10.80;;;5.73;;
19111;SDS011;9688;51.906;8.376;2022-10-04T04:52:05;9.30;;;5.30;;
19111;SDS011;9688;51.906;8.376;2022-10-04T04:55:20;7.50;;;5.47;;
19111;SDS011;9688;51.906;8.376;2022-10-04T04:58:29;11.33;;;5.63;;
19111;SDS011;9688;51.906;8.376;2022-10-04T05:01:40;9.37;;;5.30;;
19111;SDS011;9688;51.906;8.376;2022-10-04T05:04:45;8.87;;;4.97;;
19111;SDS011;9688;51.906;8.376;2022-10-04T05:08:03;9.57;;;5.07;;
19111;SDS011;9688;51.906;8.376;2022-10-04T05:11:19;9.83;;;4.43;;
19111;SDS011;9688;51.906;8.376;2022-10-04T05:14:25;6.87;;;5.10;;
19111;SDS011;9688;51.906;8.376;2022-10-04T05:17:32;8.97;;;5.00;;
19111;SDS011;9688;51.906;8.376;2022-10-04T05:20:38;8.30;;;5.40;;
19111;SDS011;9688;51.906;8.376;2022-10-04T05:23:44;9.30;;;5.70;;
19111;SDS011;9688;51.906;8.376;2022-10-04T05:26:50;7.73;;;5.27;;
19111;SDS011;9688;51.906;8.376;2022-10-04T05:29:59;8.17;;;4.90;;
19111;SDS011;9688;51.906;8.376;2022-10-04T05:33:12;9.43;;;5.80;;
19111;SDS011;9688;51.906;8.376;2022-10-04T05:36:34;15.80;;;5.30;;
19111;SDS011;9688;51.906;8.376;2022-10-04T05:39:50;13.50;;;5.37;;
19111;SDS011;9688;51.906;8.376;2022-10-04T05:43:25;8.43;;;5.53;;
19111;SDS011;9688;51.906;8.376;2022-10-04T05:46:33;10.03;;;5.83;;
19111;SDS011;9688;51.906;8.376;2022-10-04T05:49:39;10.07;;;5.50;;
19111;SDS011;9688;51.906;8.376;2022-10-04T05:52:50;8.27;;;5.27;;
19111;SDS011;9688;51.906;8.376;2022-10-04T05:56:00;14.27;;;5.50;;
19111;SDS011;9688;51.906;8.376;2022-10-04T05:59:29;11.67;;;5.30;;
19111;SDS011;9688;51.906;8.376;2022-10-04T06:02:59;12.90;;;6.03;;
19111;SDS011;9688;51.906;8.376;2022-10-04T06:06:26;11.50;;;4.87;;
19111;SDS011;9688;51.906;8.376;2022-10-04T06:09:44;6.03;;;5.20;;
19111;SDS011;9688;51.906;8.376;2022-10-04T06:13:07;9.33;;;5.37;;
19111;SDS011;9688;51.906;8.376;2022-10-04T06:16:25;10.30;;;5.60;;
19111;SDS011;9688;51.906;8.376;2022-10-04T06:19:52;9.33;;;6.00;;
19111;SDS011;9688;51.906;8.376;2022-10-04T06:23:11;12.57;;;5.50;;
19111;SDS011;9688;51.906;8.376;2022-10-04T06:26:19;10.93;;;6.03;;
19111;SDS011;9688;51.906;8.376;2022-10-04T06:29:30;10.87;;;5.50;;
19111;SDS011;9688;51.906;8.376;2022-10-04T06:32:47;8.87;;;6.00;;
19111;SDS011;9688;51.906;8.376;2022-10-04T06:36:11;8.50;;;5.87;;
19111;SDS011;9688;51.906;8.376;2022-10-04T06:40:06;10.80;;;5.47;;
19111;SDS011;9688;51.906;8.376;2022-10-04T06:43:56;9.17;;;5.40;;
19111;SDS011;9688;51.906;8.376;2022-10-04T06:47:28;13.63;;;7.00;;
19111;SDS011;9688;51.906;8.376;2022-10-04T06:50:53;9.40;;;5.70;;
19111;SDS011;9688;51.906;8.376;2022-10-04T06:54:05;15.20;;;6.67;;
19111;SDS011;9688;51.906;8.376;2022-10-04T06:57:34;10.80;;;5.87;;
19111;SDS011;9688;51.906;8.376;2022-10-04T07:00:53;13.57;;;6.07;;
19111;SDS011;9688;51.906;8.376;2022-10-04T07:04:08;15.17;;;6.87;;
19111;SDS011;9688;51.906;8.376;2022-10-04T07:07:24;9.70;;;6.13;;
19111;SDS011;9688;51.906;8.376;2022-10-04T07:10:44;13.40;;;6.43;;
19111;SDS011;9688;51.906;8.376;2022-10-04T07:13:54;8.90;;;6.30;;
19111;SDS011;9688;51.906;8.376;2022-10-04T07:17:09;14.17;;;6.70;;
19111;SDS011;9688;51.906;8.376;2022-10-04T07:20:20;12.40;;;6.37;;
19111;SDS011;9688;51.906;8.376;2022-10-04T07:23:29;12.07;;;6.30;;
19111;SDS011;9688;51.906;8.376;2022-10-04T07:26:40;10.93;;;5.90;;
19111;SDS011;9688;51.906;8.376;2022-10-04T07:29:52;10.07;;;6.13;;
19111;SDS011;9688;51.906;8.376;2022-10-04T07:32:57;11.37;;;5.27;;
19111;SDS011;9688;51.906;8.376;2022-10-04T07:36:04;14.40;;;6.47;;
19111;SDS011;9688;51.906;8.376;2022-10-04T07:39:15;14.20;;;5.90;;
19111;SDS011;9688;51.906;8.376;2022-10-04T07:42:23;11.17;;;6.53;;
19111;SDS011;9688;51.906;8.376;2022-10-04T07:45:32;12.30;;;6.27;;
19111;SDS011;9688;51.906;8.376;2022-10-04T07:48:41;12.37;;;6.10;;
19111;SDS011;9688;51.906;8.376;2022-10-04T07:51:57;13.43;;;5.77;;
19111;SDS011;9688;51.906;8.376;2022-10-04T07:55:12;12.30;;;6.00;;
19111;SDS011;9688;51.906;8.376;2022-10-04T07:58:32;7.77;;;5.27;;
19111;SDS011;9688;51.906;8.376;2022-10-04T08:01:48;11.40;;;5.90;;
19111;SDS011;9688;51.906;8.376;2022-10-04T08:05:07;18.47;;;6.57;;
19111;SDS011;9688;51.906;8.376;2022-10-04T08:08:31;8.97;;;5.20;;
19111;SDS011;9688;51.906;8.376;2022-10-04T08:11:57;8.43;;;5.30;;
19111;SDS011;9688;51.906;8.376;2022-10-04T08:18:41;15.57;;;5.70;;
19111;SDS011;9688;51.906;8.376;2022-10-04T08:21:57;16.63;;;5.93;;
19111;SDS011;9688;51.906;8.376;2022-10-04T08:25:10;11.93;;;5.10;;
19111;SDS011;9688;51.906;8.376;2022-10-04T08:28:24;14.53;;;5.30;;
19111;SDS011;9688;51.906;8.376;2022-10-04T08:32:00;11.13;;;5.67;;
19111;SDS011;9688;51.906;8.376;2022-10-04T08:35:13;7.70;;;5.50;;
19111;SDS011;9688;51.906;8.376;2022-10-04T08:38:39;9.67;;;5.53;;
19111;SDS011;9688;51.906;8.376;2022-10-04T08:45:34;10.63;;;5.00;;
19111;SDS011;9688;51.906;8.376;2022-10-04T08:52:51;11.73;;;5.40;;
19111;SDS011;9688;51.906;8.376;2022-10-04T08:56:35;9.07;;;5.23;;
19111;SDS011;9688;51.906;8.376;2022-10-04T09:00:07;12.40;;;5.00;;
19111;SDS011;9688;51.906;8.376;2022-10-04T09:07:19;10.13;;;5.40;;
19111;SDS011;9688;51.906;8.376;2022-10-04T09:11:10;10.70;;;5.80;;
19111;SDS011;9688;51.906;8.376;2022-10-04T09:18:29;7.70;;;4.90;;
19111;SDS011;9688;51.906;8.376;2022-10-04T09:21:59;9.17;;;5.37;;
19111;SDS011;9688;51.906;8.376;2022-10-04T09:29:03;9.27;;;5.17;;
19111;SDS011;9688;51.906;8.376;2022-10-04T09:36:18;8.63;;;4.80;;
19111;SDS011;9688;51.906;8.376;2022-10-04T09:39:49;10.83;;;5.23;;
19111;SDS011;9688;51.906;8.376;2022-10-04T09:43:27;15.93;;;5.40;;
19111;SDS011;9688;51.906;8.376;2022-10-04T09:47:03;10.50;;;4.93;;
19111;SDS011;9688;51.906;8.376;2022-10-04T09:54:21;11.97;;;5.00;;
19111;SDS011;9688;51.906;8.376;2022-10-04T09:57:52;9.37;;;4.83;;
19111;SDS011;9688;51.906;8.376;2022-10-04T10:01:37;7.63;;;4.30;;
19111;SDS011;9688;51.906;8.376;2022-10-04T10:04:50;9.30;;;4.60;;
19111;SDS011;9688;51.906;8.376;2022-10-04T10:08:15;10.03;;;4.40;;
19111;SDS011;9688;51.906;8.376;2022-10-04T10:11:31;6.20;;;4.00;;
19111;SDS011;9688;51.906;8.376;2022-10-04T10:15:06;10.87;;;4.13;;
19111;SDS011;9688;51.906;8.376;2022-10-04T10:18:22;10.03;;;4.13;;
19111;SDS011;9688;51.906;8.376;2022-10-04T10:21:37;7.80;;;4.30;;
19111;SDS011;9688;51.906;8.376;2022-10-04T10:25:06;6.43;;;4.47;;
19111;SDS011;9688;51.906;8.376;2022-10-04T10:28:26;6.50;;;3.87;;
19111;SDS011;9688;51.906;8.376;2022-10-04T10:31:49;9.47;;;4.60;;
19111;SDS011;9688;51.906;8.376;2022-10-04T10:35:15;8.07;;;4.43;;
19111;SDS011;9688;51.906;8.376;2022-10-04T10:38:37;10.67;;;4.57;;
19111;SDS011;9688;51.906;8.376;2022-10-04T10:42:00;12.20;;;5.00;;
19111;SDS011;9688;51.906;8.376;2022-10-04T10:45:28;8.07;;;4.53;;
19111;SDS011;9688;51.906;8.376;2022-10-04T10:48:49;12.70;;;4.87;;
19111;SDS011;9688;51.906;8.376;2022-10-04T10:52:27;9.23;;;4.73;;
19111;SDS011;9688;51.906;8.376;2022-10-04T10:56:17;8.97;;;4.43;;
19111;SDS011;9688;51.906;8.376;2022-10-04T11:03:35;7.03;;;4.13;;
19111;SDS011;9688;51.906;8.376;2022-10-04T11:10:58;7.23;;;3.27;;
19111;SDS011;9688;51.906;8.376;2022-10-04T11:14:29;5.60;;;3.73;;
19111;SDS011;9688;51.906;8.376;2022-10-04T11:29:19;7.93;;;3.77;;
19111;SDS011;9688;51.906;8.376;2022-10-04T11:32:57;7.87;;;3.23;;
19111;SDS011;9688;51.906;8.376;2022-10-04T11:36:36;5.23;;;3.33;;
19111;SDS011;9688;51.906;8.376;2022-10-04T11:40:06;7.57;;;3.17;;
19111;SDS011;9688;51.906;8.376;2022-10-04T11:43:30;10.00;;;3.10;;
19111;SDS011;9688;51.906;8.376;2022-10-04T11:46:49;5.50;;;2.67;;
19111;SDS011;9688;51.906;8.376;2022-10-04T11:50:06;4.40;;;2.73;;
19111;SDS011;9688;51.906;8.376;2022-10-04T11:57:30;5.37;;;2.80;;
19111;SDS011;9688;51.906;8.376;2022-10-04T12:00:47;5.73;;;2.73;;
19111;SDS011;9688;51.906;8.376;2022-10-04T12:04:16;4.60;;;2.83;;
19111;SDS011;9688;51.906;8.376;2022-10-04T12:07:37;5.93;;;3.47;;
19111;SDS011;9688;51.906;8.376;2022-10-04T12:10:58;6.00;;;3.50;;
19111;SDS011;9688;51.906;8.376;2022-10-04T12:14:32;5.03;;;2.60;;
19111;SDS011;9688;51.906;8.376;2022-10-04T12:17:49;8.53;;;3.10;;
19111;SDS011;9688;51.906;8.376;2022-10-04T12:25:08;5.93;;;2.77;;
19111;SDS011;9688;51.906;8.376;2022-10-04T12:28:39;5.70;;;3.10;;
19111;SDS011;9688;51.906;8.376;2022-10-04T12:32:05;7.67;;;3.33;;
19111;SDS011;9688;51.906;8.376;2022-10-04T12:35:18;6.97;;;2.50;;
19111;SDS011;9688;51.906;8.376;2022-10-04T12:38:40;5.43;;;2.80;;
19111;SDS011;9688;51.906;8.376;2022-10-04T12:41:56;3.90;;;2.70;;
19111;SDS011;9688;51.906;8.376;2022-10-04T12:45:24;5.57;;;2.40;;
19111;SDS011;9688;51.906;8.376;2022-10-04T12:48:44;4.50;;;2.70;;
19111;SDS011;9688;51.906;8.376;2022-10-04T12:52:01;10.63;;;2.97;;
19111;SDS011;9688;51.906;8.376;2022-10-04T12:55:17;3.20;;;2.63;;
19111;SDS011;9688;51.906;8.376;2022-10-04T12:58:51;5.67;;;3.20;;
19111;SDS011;9688;51.906;8.376;2022-10-04T13:02:15;7.20;;;3.40;;
19111;SDS011;9688;51.906;8.376;2022-10-04T13:05:34;4.80;;;2.60;;
19111;SDS011;9688;51.906;8.376;2022-10-04T13:08:48;3.43;;;2.73;;
19111;SDS011;9688;51.906;8.376;2022-10-04T13:12:11;7.60;;;3.07;;
19111;SDS011;9688;51.906;8.376;2022-10-04T13:15:27;8.73;;;2.93;;
19111;SDS011;9688;51.906;8.376;2022-10-04T13:18:40;6.63;;;2.93;;
19111;SDS011;9688;51.906;8.376;2022-10-04T13:22:00;8.03;;;2.93;;
19111;SDS011;9688;51.906;8.376;2022-10-04T13:25:22;4.57;;;2.47;;
19111;SDS011;9688;51.906;8.376;2022-10-04T13:28:50;2.53;;;2.27;;
19111;SDS011;9688;51.906;8.376;2022-10-04T13:32:04;3.60;;;2.80;;
19111;SDS011;9688;51.906;8.376;2022-10-04T13:35:17;6.93;;;2.50;;
19111;SDS011;9688;51.906;8.376;2022-10-04T13:38:37;2.83;;;2.23;;
19111;SDS011;9688;51.906;8.376;2022-10-04T13:42:12;5.77;;;2.37;;
19111;SDS011;9688;51.906;8.376;2022-10-04T13:45:28;5.33;;;2.87;;
19111;SDS011;9688;51.906;8.376;2022-10-04T13:48:45;6.53;;;2.37;;
19111;SDS011;9688;51.906;8.376;2022-10-04T13:52:09;2.87;;;2.10;;
19111;SDS011;9688;51.906;8.376;2022-10-04T13:55:46;3.13;;;2.13;;
19111;SDS011;9688;51.906;8.376;2022-10-04T13:59:18;3.67;;;2.27;;
19111;SDS011;9688;51.906;8.376;2022-10-04T14:02:39;5.93;;;2.33;;
19111;SDS011;9688;51.906;8.376;2022-10-04T14:06:22;4.27;;;2.50;;
19111;SDS011;9688;51.906;8.376;2022-10-04T14:09:54;4.00;;;1.80;;
19111;SDS011;9688;51.906;8.376;2022-10-04T14:13:16;4.97;;;2.20;;
19111;SDS011;9688;51.906;8.376;2022-10-04T14:17:07;5.93;;;2.43;;
19111;SDS011;9688;51.906;8.376;2022-10-04T14:24:41;5.80;;;2.60;;
19111;SDS011;9688;51.906;8.376;2022-10-04T14:28:37;6.23;;;2.53;;
19111;SDS011;9688;51.906;8.376;2022-10-04T14:35:56;9.03;;;2.40;;
19111;SDS011;9688;51.906;8.376;2022-10-04T14:42:59;3.87;;;2.57;;
19111;SDS011;9688;51.906;8.376;2022-10-04T14:46:19;4.53;;;2.60;;
19111;SDS011;9688;51.906;8.376;2022-10-04T14:49:37;4.27;;;2.63;;
19111;SDS011;9688;51.906;8.376;2022-10-04T14:52:54;6.17;;;2.80;;
19111;SDS011;9688;51.906;8.376;2022-10-04T14:56:19;5.60;;;2.77;;
19111;SDS011;9688;51.906;8.376;2022-10-04T15:03:18;4.77;;;2.33;;
19111;SDS011;9688;51.906;8.376;2022-10-04T15:06:35;4.10;;;2.37;;
19111;SDS011;9688;51.906;8.376;2022-10-04T15:09:54;4.47;;;2.60;;
19111;SDS011;9688;51.906;8.376;2022-10-04T15:13:16;5.00;;;2.47;;
19111;SDS011;9688;51.906;8.376;2022-10-04T15:16:30;4.43;;;2.53;;
19111;SDS011;9688;51.906;8.376;2022-10-04T15:19:56;4.90;;;2.90;;
19111;SDS011;9688;51.906;8.376;2022-10-04T15:23:13;7.90;;;3.20;;
19111;SDS011;9688;51.906;8.376;2022-10-04T15:30:08;7.97;;;2.90;;
19111;SDS011;9688;51.906;8.376;2022-10-04T15:33:26;5.53;;;2.73;;
19111;SDS011;9688;51.906;8.376;2022-10-04T15:36:46;6.80;;;2.80;;
19111;SDS011;9688;51.906;8.376;2022-10-04T15:40:11;3.40;;;2.53;;
19111;SDS011;9688;51.906;8.376;2022-10-04T15:43:25;4.60;;;2.83;;
19111;SDS011;9688;51.906;8.376;2022-10-04T15:46:40;4.90;;;2.70;;
19111;SDS011;9688;51.906;8.376;2022-10-04T15:49:53;8.17;;;2.53;;
19111;SDS011;9688;51.906;8.376;2022-10-04T15:53:12;8.50;;;2.70;;
19111;SDS011;9688;51.906;8.376;2022-10-04T15:56:32;5.80;;;3.00;;
19111;SDS011;9688;51.906;8.376;2022-10-04T15:59:47;5.17;;;2.77;;
19111;SDS011;9688;51.906;8.376;2022-10-04T16:03:00;6.00;;;3.20;;
19111;SDS011;9688;51.906;8.376;2022-10-04T16:06:21;7.60;;;3.87;;
19111;SDS011;9688;51.906;8.376;2022-10-04T16:09:32;4.53;;;3.00;;
19111;SDS011;9688;51.906;8.376;2022-10-04T16:16:46;3.37;;;2.40;;
19111;SDS011;9688;51.906;8.376;2022-10-04T16:20:29;9.50;;;3.80;;
19111;SDS011;9688;51.906;8.376;2022-10-04T16:23:45;5.50;;;2.70;;
19111;SDS011;9688;51.906;8.376;2022-10-04T16:27:06;8.50;;;3.47;;
19111;SDS011;9688;51.906;8.376;2022-10-04T16:30:40;6.43;;;3.60;;
19111;SDS011;9688;51.906;8.376;2022-10-04T16:33:53;9.03;;;3.50;;
19111;SDS011;9688;51.906;8.376;2022-10-04T16:37:03;6.63;;;4.10;;
19111;SDS011;9688;51.906;8.376;2022-10-04T16:40:24;9.57;;;3.47;;
19111;SDS011;9688;51.906;8.376;2022-10-04T16:43:37;9.90;;;3.60;;
19111;SDS011;9688;51.906;8.376;2022-10-04T16:46:53;8.83;;;4.63;;
19111;SDS011;9688;51.906;8.376;2022-10-04T16:50:07;11.30;;;5.07;;
19111;SDS011;9688;51.906;8.376;2022-10-04T16:53:18;9.33;;;4.87;;
19111;SDS011;9688;51.906;8.376;2022-10-04T17:00:30;16.63;;;5.97;;
19111;SDS011;9688;51.906;8.376;2022-10-04T17:03:37;11.13;;;5.37;;
19111;SDS011;9688;51.906;8.376;2022-10-04T17:06:54;10.60;;;5.23;;
19111;SDS011;9688;51.906;8.376;2022-10-04T17:10:11;11.17;;;4.57;;
19111;SDS011;9688;51.906;8.376;2022-10-04T17:13:23;12.83;;;5.87;;
19111;SDS011;9688;51.906;8.376;2022-10-04T17:16:37;13.40;;;5.63;;
19111;SDS011;9688;51.906;8.376;2022-10-04T17:19:52;12.77;;;5.73;;
19111;SDS011;9688;51.906;8.376;2022-10-04T17:23:17;9.40;;;4.30;;
19111;SDS011;9688;51.906;8.376;2022-10-04T17:26:37;9.10;;;5.53;;
19111;SDS011;9688;51.906;8.376;2022-10-04T17:33:45;16.67;;;6.67;;
19111;SDS011;9688;51.906;8.376;2022-10-04T17:36:57;8.30;;;5.00;;
19111;SDS011;9688;51.906;8.376;2022-10-04T17:40:22;6.77;;;4.87;;
19111;SDS011;9688;51.906;8.376;2022-10-04T17:43:42;14.23;;;5.60;;
19111;SDS011;9688;51.906;8.376;2022-10-04T17:47:08;9.30;;;4.93;;
19111;SDS011;9688;51.906;8.376;2022-10-04T17:50:20;7.03;;;4.80;;
19111;SDS011;9688;51.906;8.376;2022-10-04T17:53:52;9.77;;;5.60;;
19111;SDS011;9688;51.906;8.376;2022-10-04T17:57:22;14.20;;;6.33;;
19111;SDS011;9688;51.906;8.376;2022-10-04T18:00:45;12.63;;;7.07;;
19111;SDS011;9688;51.906;8.376;2022-10-04T18:03:56;13.03;;;5.90;;
19111;SDS011;9688;51.906;8.376;2022-10-04T18:07:13;8.90;;;4.90;;
19111;SDS011;9688;51.906;8.376;2022-10-04T18:10:25;15.40;;;5.17;;
19111;SDS011;9688;51.906;8.376;2022-10-04T18:13:36;9.63;;;5.73;;
19111;SDS011;9688;51.906;8.376;2022-10-04T18:16:50;8.33;;;5.10;;
19111;SDS011;9688;51.906;8.376;2022-10-04T18:20:00;12.70;;;5.13;;
19111;SDS011;9688;51.906;8.376;2022-10-04T18:23:23;20.87;;;13.10;;
19111;SDS011;9688;51.906;8.376;2022-10-04T18:26:30;14.30;;;7.80;;
19111;SDS011;9688;51.906;8.376;2022-10-04T18:29:38;14.53;;;6.83;;
19111;SDS011;9688;51.906;8.376;2022-10-04T18:32:53;13.60;;;6.43;;
19111;SDS011;9688;51.906;8.376;2022-10-04T18:35:59;15.87;;;8.10;;
19111;SDS011;9688;51.906;8.376;2022-10-04T18:39:19;12.80;;;8.03;;
19111;SDS011;9688;51.906;8.376;2022-10-04T18:42:26;13.83;;;7.90;;
19111;SDS011;9688;51.906;8.376;2022-10-04T18:45:32;12.50;;;7.57;;
19111;SDS011;9688;51.906;8.376;2022-10-04T18:48:41;12.63;;;8.00;;
19111;SDS011;9688;51.906;8.376;2022-10-04T18:51:59;14.17;;;7.43;;
19111;SDS011;9688;51.906;8.376;2022-10-04T18:55:27;11.03;;;7.13;;
19111;SDS011;9688;51.906;8.376;2022-10-04T18:58:47;13.30;;;7.93;;
19111;SDS011;9688;51.906;8.376;2022-10-04T19:02:21;15.73;;;7.90;;
19111;SDS011;9688;51.906;8.376;2022-10-04T19:05:35;18.37;;;8.13;;
19111;SDS011;9688;51.906;8.376;2022-10-04T19:08:48;15.83;;;9.10;;
19111;SDS011;9688;51.906;8.376;2022-10-04T19:12:03;13.60;;;7.03;;
19111;SDS011;9688;51.906;8.376;2022-10-04T19:15:20;11.60;;;7.00;;
19111;SDS011;9688;51.906;8.376;2022-10-04T19:18:39;10.50;;;5.60;;
19111;SDS011;9688;51.906;8.376;2022-10-04T19:21:59;12.67;;;6.57;;
19111;SDS011;9688;51.906;8.376;2022-10-04T19:25:23;9.53;;;6.03;;
19111;SDS011;9688;51.906;8.376;2022-10-04T19:28:39;8.70;;;5.97;;
19111;SDS011;9688;51.906;8.376;2022-10-04T19:31:46;9.80;;;6.87;;
19111;SDS011;9688;51.906;8.376;2022-10-04T19:34:59;12.40;;;6.33;;
19111;SDS011;9688;51.906;8.376;2022-10-04T19:38:18;10.13;;;6.00;;
19111;SDS011;9688;51.906;8.376;2022-10-04T19:41:41;10.23;;;6.60;;
19111;SDS011;9688;51.906;8.376;2022-10-04T19:44:56;11.80;;;6.47;;
19111;SDS011;9688;51.906;8.376;2022-10-04T19:48:11;13.67;;;7.00;;
19111;SDS011;9688;51.906;8.376;2022-10-04T19:51:24;9.73;;;5.70;;
19111;SDS011;9688;51.906;8.376;2022-10-04T19:54:35;10.10;;;6.50;;
19111;SDS011;9688;51.906;8.376;2022-10-04T19:57:42;8.93;;;5.77;;
19111;SDS011;9688;51.906;8.376;2022-10-04T20:00:55;8.67;;;4.87;;
19111;SDS011;9688;51.906;8.376;2022-10-04T20:03:59;8.87;;;4.80;;
19111;SDS011;9688;51.906;8.376;2022-10-04T20:07:23;9.73;;;4.97;;
19111;SDS011;9688;51.906;8.376;2022-10-04T20:10:30;5.70;;;4.87;;
19111;SDS011;9688;51.906;8.376;2022-10-04T20:13:37;7.63;;;5.53;;
19111;SDS011;9688;51.906;8.376;2022-10-04T20:17:03;12.67;;;6.03;;
19111;SDS011;9688;51.906;8.376;2022-10-04T20:20:07;10.53;;;5.80;;
19111;SDS011;9688;51.906;8.376;2022-10-04T20:23:14;12.23;;;6.10;;
19111;SDS011;9688;51.906;8.376;2022-10-04T20:26:51;9.00;;;5.90;;
19111;SDS011;9688;51.906;8.376;2022-10-04T20:29:58;7.77;;;5.63;;
19111;SDS011;9688;51.906;8.376;2022-10-04T20:33:11;8.60;;;5.40;;
19111;SDS011;9688;51.906;8.376;2022-10-04T20:36:49;9.53;;;5.70;;
19111;SDS011;9688;51.906;8.376;2022-10-04T20:39:55;10.37;;;5.70;;
19111;SDS011;9688;51.906;8.376;2022-10-04T20:46:30;10.70;;;5.97;;
19111;SDS011;9688;51.906;8.376;2022-10-04T20:49:43;6.17;;;4.73;;
19111;SDS011;9688;51.906;8.376;2022-10-04T20:52:50;7.90;;;5.50;;
19111;SDS011;9688;51.906;8.376;2022-10-04T20:56:07;9.37;;;5.73;;
19111;SDS011;9688;51.906;8.376;2022-10-04T20:59:14;10.47;;;6.40;;
19111;SDS011;9688;51.906;8.376;2022-10-04T21:02:20;9.53;;;5.63;;
19111;SDS011;9688;51.906;8.376;2022-10-04T21:05:27;10.77;;;6.43;;
19111;SDS011;9688;51.906;8.376;2022-10-04T21:08:32;12.70;;;6.43;;
19111;SDS011;9688;51.906;8.376;2022-10-04T21:11:45;10.73;;;6.70;;
19111;SDS011;9688;51.906;8.376;2022-10-04T21:14:59;10.83;;;6.90;;
19111;SDS011;9688;51.906;8.376;2022-10-04T21:18:06;12.93;;;6.23;;
19111;SDS011;9688;51.906;8.376;2022-10-04T21:21:14;8.93;;;6.37;;
19111;SDS011;9688;51.906;8.376;2022-10-04T21:24:57;7.77;;;5.97;;
19111;SDS011;9688;51.906;8.376;2022-10-04T21:28:21;10.27;;;6.57;;
19111;SDS011;9688;51.906;8.376;2022-10-04T21:31:26;14.73;;;6.63;;
19111;SDS011;9688;51.906;8.376;2022-10-04T21:34:32;11.60;;;7.03;;
19111;SDS011;9688;51.906;8.376;2022-10-04T21:37:37;11.43;;;6.67;;
19111;SDS011;9688;51.906;8.376;2022-10-04T21:40:42;11.47;;;6.50;;